Terminal Aerodrome Forecast
Issued by NWS

Home | Current Version | Previous Version | Text Only | Print | Product List | Glossary On
Versions: 1 2 3 4 5 6 7 8 9 10 11 12 13 14
000
FTUS44 KEPZ 262300
TAFLRU
TAF
KLRU 262334Z 2700/2724 27010KT P6SM BKN060
     FM270300 30010KT P6SM FEW060 SCT110
     FM270600 33006KT P6SM FEW110
     FM271400 36010KT P6SM FEW130=

USA.gov is the U.S. government's official web portal to all federal, state and local government web resources and services.